sensor_id;sensor_type;location;lat;lon;timestamp;pressure;altitude;pressure_sealevel;temperature
75822;BMP180;64454;51.984;9.838;2023-03-01T00:02:05;101669.00;;;-2.20
75822;BMP180;64454;51.984;9.838;2023-03-01T00:04:32;101677.00;;;-2.50
75822;BMP180;64454;51.984;9.838;2023-03-01T00:06:59;101675.00;;;-2.70
75822;BMP180;64454;51.984;9.838;2023-03-01T00:09:26;101678.00;;;-2.80
75822;BMP180;64454;51.984;9.838;2023-03-01T00:11:54;101672.00;;;-2.10
75822;BMP180;64454;51.984;9.838;2023-03-01T00:14:21;101675.00;;;-1.90
75822;BMP180;64454;51.984;9.838;2023-03-01T00:16:49;101679.00;;;-2.00
75822;BMP180;64454;51.984;9.838;2023-03-01T00:19:19;101661.00;;;-2.00
75822;BMP180;64454;51.984;9.838;2023-03-01T00:21:47;101666.00;;;-2.00
75822;BMP180;64454;51.984;9.838;2023-03-01T00:24:15;101659.00;;;-1.70
75822;BMP180;64454;51.984;9.838;2023-03-01T00:26:42;101664.00;;;-2.00
75822;BMP180;64454;51.984;9.838;2023-03-01T00:29:11;101667.00;;;-1.80
75822;BMP180;64454;51.984;9.838;2023-03-01T00:31:37;101666.00;;;-1.50
75822;BMP180;64454;51.984;9.838;2023-03-01T00:34:05;101674.00;;;-2.10
75822;BMP180;64454;51.984;9.838;2023-03-01T00:36:36;101668.00;;;-1.80
75822;BMP180;64454;51.984;9.838;2023-03-01T00:39:09;101677.00;;;-1.80
75822;BMP180;64454;51.984;9.838;2023-03-01T00:41:36;101667.00;;;-2.10
75822;BMP180;64454;51.984;9.838;2023-03-01T00:44:04;101655.00;;;-2.80
75822;BMP180;64454;51.984;9.838;2023-03-01T00:46:32;101660.00;;;-2.70
75822;BMP180;64454;51.984;9.838;2023-03-01T00:48:59;101657.00;;;-2.10
75822;BMP180;64454;51.984;9.838;2023-03-01T00:51:28;101648.00;;;-1.90
75822;BMP180;64454;51.984;9.838;2023-03-01T00:53:58;101658.00;;;-2.10
75822;BMP180;64454;51.984;9.838;2023-03-01T00:56:26;101651.00;;;-2.30
75822;BMP180;64454;51.984;9.838;2023-03-01T00:58:53;101661.00;;;-3.20
75822;BMP180;64454;51.984;9.838;2023-03-01T01:01:23;101653.00;;;-3.50
75822;BMP180;64454;51.984;9.838;2023-03-01T01:03:57;101656.00;;;-3.50
75822;BMP180;64454;51.984;9.838;2023-03-01T01:06:26;101659.00;;;-3.40
75822;BMP180;64454;51.984;9.838;2023-03-01T01:08:54;101652.00;;;-3.40
75822;BMP180;64454;51.984;9.838;2023-03-01T01:11:24;101650.00;;;-3.60
75822;BMP180;64454;51.984;9.838;2023-03-01T01:13:52;101644.00;;;-3.10
75822;BMP180;64454;51.984;9.838;2023-03-01T01:16:21;101648.00;;;-2.30
75822;BMP180;64454;51.984;9.838;2023-03-01T01:18:48;101649.00;;;-2.20
75822;BMP180;64454;51.984;9.838;2023-03-01T01:21:19;101637.00;;;-2.40
75822;BMP180;64454;51.984;9.838;2023-03-01T01:23:47;101636.00;;;-2.90
75822;BMP180;64454;51.984;9.838;2023-03-01T01:26:18;101635.00;;;-3.00
75822;BMP180;64454;51.984;9.838;2023-03-01T01:28:45;101635.00;;;-2.50
75822;BMP180;64454;51.984;9.838;2023-03-01T01:31:13;101642.00;;;-2.50
75822;BMP180;64454;51.984;9.838;2023-03-01T01:33:40;101631.00;;;-2.10
75822;BMP180;64454;51.984;9.838;2023-03-01T01:36:08;101634.00;;;-2.20
75822;BMP180;64454;51.984;9.838;2023-03-01T01:38:38;101643.00;;;-2.90
75822;BMP180;64454;51.984;9.838;2023-03-01T01:41:09;101628.00;;;-3.20
75822;BMP180;64454;51.984;9.838;2023-03-01T01:43:41;101629.00;;;-2.60
75822;BMP180;64454;51.984;9.838;2023-03-01T01:46:21;101620.00;;;-2.40
75822;BMP180;64454;51.984;9.838;2023-03-01T01:48:56;101609.00;;;-2.70
75822;BMP180;64454;51.984;9.838;2023-03-01T01:51:28;101617.00;;;-2.70
75822;BMP180;64454;51.984;9.838;2023-03-01T01:54:10;101604.00;;;-2.60
75822;BMP180;64454;51.984;9.838;2023-03-01T01:56:43;101602.00;;;-2.50
75822;BMP180;64454;51.984;9.838;2023-03-01T01:59:13;101599.00;;;-2.40
75822;BMP180;64454;51.984;9.838;2023-03-01T02:01:41;101600.00;;;-3.00
75822;BMP180;64454;51.984;9.838;2023-03-01T02:04:08;101601.00;;;-3.10
75822;BMP180;64454;51.984;9.838;2023-03-01T02:06:39;101600.00;;;-2.70
75822;BMP180;64454;51.984;9.838;2023-03-01T02:09:14;101606.00;;;-2.50
75822;BMP180;64454;51.984;9.838;2023-03-01T02:11:44;101598.00;;;-2.80
75822;BMP180;64454;51.984;9.838;2023-03-01T02:14:11;101601.00;;;-2.70
75822;BMP180;64454;51.984;9.838;2023-03-01T02:16:38;101595.00;;;-2.60
75822;BMP180;64454;51.984;9.838;2023-03-01T02:19:06;101591.00;;;-2.60
75822;BMP180;64454;51.984;9.838;2023-03-01T02:21:42;101587.00;;;-2.60
75822;BMP180;64454;51.984;9.838;2023-03-01T02:24:26;101581.00;;;-2.50
75822;BMP180;64454;51.984;9.838;2023-03-01T02:26:57;101584.00;;;-2.80
75822;BMP180;64454;51.984;9.838;2023-03-01T02:29:28;101582.00;;;-2.80
75822;BMP180;64454;51.984;9.838;2023-03-01T02:31:58;101568.00;;;-2.60
75822;BMP180;64454;51.984;9.838;2023-03-01T02:34:26;101576.00;;;-2.90
75822;BMP180;64454;51.984;9.838;2023-03-01T02:37:00;101571.00;;;-2.90
75822;BMP180;64454;51.984;9.838;2023-03-01T02:39:33;101576.00;;;-3.10
75822;BMP180;64454;51.984;9.838;2023-03-01T02:42:04;101569.00;;;-3.70
75822;BMP180;64454;51.984;9.838;2023-03-01T02:44:32;101576.00;;;-3.80
75822;BMP180;64454;51.984;9.838;2023-03-01T02:47:02;101572.00;;;-3.50
75822;BMP180;64454;51.984;9.838;2023-03-01T02:49:32;101572.00;;;-3.90
75822;BMP180;64454;51.984;9.838;2023-03-01T02:52:43;101578.00;;;-4.20
75822;BMP180;64454;51.984;9.838;2023-03-01T02:55:14;101571.00;;;-3.80
75822;BMP180;64454;51.984;9.838;2023-03-01T02:57:45;101568.00;;;-3.40
75822;BMP180;64454;51.984;9.838;2023-03-01T03:00:18;101558.00;;;-3.10
75822;BMP180;64454;51.984;9.838;2023-03-01T03:02:46;101547.00;;;-3.20
75822;BMP180;64454;51.984;9.838;2023-03-01T03:05:17;101544.00;;;-3.70
75822;BMP180;64454;51.984;9.838;2023-03-01T03:07:46;101543.00;;;-3.30
75822;BMP180;64454;51.984;9.838;2023-03-01T03:10:17;101534.00;;;-3.30
75822;BMP180;64454;51.984;9.838;2023-03-01T03:12:50;101544.00;;;-3.50
75822;BMP180;64454;51.984;9.838;2023-03-01T03:15:19;101548.00;;;-4.10
75822;BMP180;64454;51.984;9.838;2023-03-01T03:17:47;101547.00;;;-4.40
75822;BMP180;64454;51.984;9.838;2023-03-01T03:20:17;101554.00;;;-4.40
75822;BMP180;64454;51.984;9.838;2023-03-01T03:22:46;101564.00;;;-4.50
75822;BMP180;64454;51.984;9.838;2023-03-01T03:25:13;101566.00;;;-4.40
75822;BMP180;64454;51.984;9.838;2023-03-01T03:27:43;101570.00;;;-4.00
75822;BMP180;64454;51.984;9.838;2023-03-01T03:30:14;101571.00;;;-3.90
75822;BMP180;64454;51.984;9.838;2023-03-01T03:32:46;101571.00;;;-3.40
75822;BMP180;64454;51.984;9.838;2023-03-01T03:35:19;101561.00;;;-3.20
75822;BMP180;64454;51.984;9.838;2023-03-01T03:37:47;101560.00;;;-3.30
75822;BMP180;64454;51.984;9.838;2023-03-01T03:40:32;101562.00;;;-3.70
75822;BMP180;64454;51.984;9.838;2023-03-01T03:42:59;101563.00;;;-3.30
75822;BMP180;64454;51.984;9.838;2023-03-01T03:45:26;101545.00;;;-3.50
75822;BMP180;64454;51.984;9.838;2023-03-01T03:47:54;101544.00;;;-3.20
75822;BMP180;64454;51.984;9.838;2023-03-01T03:50:21;101553.00;;;-3.50
75822;BMP180;64454;51.984;9.838;2023-03-01T03:52:48;101546.00;;;-3.10
75822;BMP180;64454;51.984;9.838;2023-03-01T03:55:15;101550.00;;;-3.10
75822;BMP180;64454;51.984;9.838;2023-03-01T03:57:46;101543.00;;;-3.30
75822;BMP180;64454;51.984;9.838;2023-03-01T04:00:19;101554.00;;;-3.90
75822;BMP180;64454;51.984;9.838;2023-03-01T04:02:47;101553.00;;;-4.20
75822;BMP180;64454;51.984;9.838;2023-03-01T04:05:18;101556.00;;;-4.10
75822;BMP180;64454;51.984;9.838;2023-03-01T04:07:45;101550.00;;;-4.00
75822;BMP180;64454;51.984;9.838;2023-03-01T04:12:42;101550.00;;;-3.30
75822;BMP180;64454;51.984;9.838;2023-03-01T04:15:11;101544.00;;;-3.80
75822;BMP180;64454;51.984;9.838;2023-03-01T04:17:44;101539.00;;;-3.90
75822;BMP180;64454;51.984;9.838;2023-03-01T04:20:14;101553.00;;;-3.90
75822;BMP180;64454;51.984;9.838;2023-03-01T04:22:44;101544.00;;;-3.60
75822;BMP180;64454;51.984;9.838;2023-03-01T04:25:13;101545.00;;;-3.70
75822;BMP180;64454;51.984;9.838;2023-03-01T04:27:40;101534.00;;;-3.60
75822;BMP180;64454;51.984;9.838;2023-03-01T04:30:09;101544.00;;;-3.70
75822;BMP180;64454;51.984;9.838;2023-03-01T04:32:36;101538.00;;;-3.70
75822;BMP180;64454;51.984;9.838;2023-03-01T04:35:04;101541.00;;;-3.50
75822;BMP180;64454;51.984;9.838;2023-03-01T04:37:31;101537.00;;;-3.70
75822;BMP180;64454;51.984;9.838;2023-03-01T04:39:59;101553.00;;;-3.80
75822;BMP180;64454;51.984;9.838;2023-03-01T04:42:26;101539.00;;;-3.60
75822;BMP180;64454;51.984;9.838;2023-03-01T04:44:53;101547.00;;;-3.50
75822;BMP180;64454;51.984;9.838;2023-03-01T04:47:20;101540.00;;;-3.50
75822;BMP180;64454;51.984;9.838;2023-03-01T04:49:46;101547.00;;;-3.50
75822;BMP180;64454;51.984;9.838;2023-03-01T04:52:13;101545.00;;;-3.90
75822;BMP180;64454;51.984;9.838;2023-03-01T04:54:40;101551.00;;;-4.10
75822;BMP180;64454;51.984;9.838;2023-03-01T04:57:08;101560.00;;;-5.00
75822;BMP180;64454;51.984;9.838;2023-03-01T04:59:35;101554.00;;;-5.00
75822;BMP180;64454;51.984;9.838;2023-03-01T05:02:02;101547.00;;;-4.50
75822;BMP180;64454;51.984;9.838;2023-03-01T05:04:30;101552.00;;;-4.80
75822;BMP180;64454;51.984;9.838;2023-03-01T05:06:57;101551.00;;;-4.70
75822;BMP180;64454;51.984;9.838;2023-03-01T05:09:24;101547.00;;;-4.40
75822;BMP180;64454;51.984;9.838;2023-03-01T05:11:51;101533.00;;;-3.80
75822;BMP180;64454;51.984;9.838;2023-03-01T05:14:20;101534.00;;;-3.70
75822;BMP180;64454;51.984;9.838;2023-03-01T05:16:48;101546.00;;;-4.10
75822;BMP180;64454;51.984;9.838;2023-03-01T05:19:15;101547.00;;;-4.20
75822;BMP180;64454;51.984;9.838;2023-03-01T05:21:48;101545.00;;;-4.70
75822;BMP180;64454;51.984;9.838;2023-03-01T05:24:33;101548.00;;;-4.80
75822;BMP180;64454;51.984;9.838;2023-03-01T05:27:01;101546.00;;;-4.90
75822;BMP180;64454;51.984;9.838;2023-03-01T05:29:31;101556.00;;;-4.60
75822;BMP180;64454;51.984;9.838;2023-03-01T05:32:01;101544.00;;;-4.70
75822;BMP180;64454;51.984;9.838;2023-03-01T05:34:31;101541.00;;;-4.50
75822;BMP180;64454;51.984;9.838;2023-03-01T05:36:58;101539.00;;;-4.40
75822;BMP180;64454;51.984;9.838;2023-03-01T05:39:29;101533.00;;;-4.00
75822;BMP180;64454;51.984;9.838;2023-03-01T05:41:59;101532.00;;;-4.00
75822;BMP180;64454;51.984;9.838;2023-03-01T05:44:29;101524.00;;;-4.00
75822;BMP180;64454;51.984;9.838;2023-03-01T05:46:57;101527.00;;;-3.90
75822;BMP180;64454;51.984;9.838;2023-03-01T05:49:24;101524.00;;;-3.60
75822;BMP180;64454;51.984;9.838;2023-03-01T05:51:53;101524.00;;;-3.80
75822;BMP180;64454;51.984;9.838;2023-03-01T05:54:21;101533.00;;;-4.00
75822;BMP180;64454;51.984;9.838;2023-03-01T05:56:48;101527.00;;;-4.10
75822;BMP180;64454;51.984;9.838;2023-03-01T05:59:15;101529.00;;;-4.00
75822;BMP180;64454;51.984;9.838;2023-03-01T06:01:44;101531.00;;;-3.90
75822;BMP180;64454;51.984;9.838;2023-03-01T06:04:11;101530.00;;;-3.70
75822;BMP180;64454;51.984;9.838;2023-03-01T06:06:38;101529.00;;;-3.90
75822;BMP180;64454;51.984;9.838;2023-03-01T06:09:05;101530.00;;;-3.90
75822;BMP180;64454;51.984;9.838;2023-03-01T06:11:35;101532.00;;;-3.80
75822;BMP180;64454;51.984;9.838;2023-03-01T06:14:02;101530.00;;;-4.10
75822;BMP180;64454;51.984;9.838;2023-03-01T06:16:29;101518.00;;;-3.60
75822;BMP180;64454;51.984;9.838;2023-03-01T06:18:58;101528.00;;;-3.60
75822;BMP180;64454;51.984;9.838;2023-03-01T06:21:25;101520.00;;;-3.90
75822;BMP180;64454;51.984;9.838;2023-03-01T06:23:52;101522.00;;;-3.80
75822;BMP180;64454;51.984;9.838;2023-03-01T06:26:19;101522.00;;;-3.80
75822;BMP180;64454;51.984;9.838;2023-03-01T06:28:46;101524.00;;;-3.90
75822;BMP180;64454;51.984;9.838;2023-03-01T06:31:13;101532.00;;;-4.30
75822;BMP180;64454;51.984;9.838;2023-03-01T06:33:40;101527.00;;;-4.60
75822;BMP180;64454;51.984;9.838;2023-03-01T06:36:08;101529.00;;;-4.30
75822;BMP180;64454;51.984;9.838;2023-03-01T06:38:36;101535.00;;;-4.50
75822;BMP180;64454;51.984;9.838;2023-03-01T06:41:03;101526.00;;;-4.10
75822;BMP180;64454;51.984;9.838;2023-03-01T06:43:30;101524.00;;;-4.40
75822;BMP180;64454;51.984;9.838;2023-03-01T06:45:56;101525.00;;;-4.40
75822;BMP180;64454;51.984;9.838;2023-03-01T06:48:23;101519.00;;;-3.90
75822;BMP180;64454;51.984;9.838;2023-03-01T06:50:50;101526.00;;;-3.60
75822;BMP180;64454;51.984;9.838;2023-03-01T06:53:18;101518.00;;;-3.70
75822;BMP180;64454;51.984;9.838;2023-03-01T06:55:45;101530.00;;;-3.70
75822;BMP180;64454;51.984;9.838;2023-03-01T06:58:12;101523.00;;;-3.60
75822;BMP180;64454;51.984;9.838;2023-03-01T07:00:39;101528.00;;;-3.40
75822;BMP180;64454;51.984;9.838;2023-03-01T07:03:06;101525.00;;;-3.50
75822;BMP180;64454;51.984;9.838;2023-03-01T07:05:33;101523.00;;;-3.90
75822;BMP180;64454;51.984;9.838;2023-03-01T07:08:01;101522.00;;;-3.60
75822;BMP180;64454;51.984;9.838;2023-03-01T07:10:29;101521.00;;;-3.50
75822;BMP180;64454;51.984;9.838;2023-03-01T07:12:56;101521.00;;;-3.50
75822;BMP180;64454;51.984;9.838;2023-03-01T07:15:24;101520.00;;;-3.30
75822;BMP180;64454;51.984;9.838;2023-03-01T07:17:51;101519.00;;;-3.10
75822;BMP180;64454;51.984;9.838;2023-03-01T07:20:19;101515.00;;;-2.50
75822;BMP180;64454;51.984;9.838;2023-03-01T07:22:49;101502.00;;;-1.70
75822;BMP180;64454;51.984;9.838;2023-03-01T07:25:17;101509.00;;;-2.20
75822;BMP180;64454;51.984;9.838;2023-03-01T07:27:49;101501.00;;;-2.40
75822;BMP180;64454;51.984;9.838;2023-03-01T07:30:17;101501.00;;;-2.10
75822;BMP180;64454;51.984;9.838;2023-03-01T07:32:44;101503.00;;;-2.30
75822;BMP180;64454;51.984;9.838;2023-03-01T07:35:12;101504.00;;;-2.30
75822;BMP180;64454;51.984;9.838;2023-03-01T07:37:40;101503.00;;;-2.00
75822;BMP180;64454;51.984;9.838;2023-03-01T07:40:09;101502.00;;;-1.90
75822;BMP180;64454;51.984;9.838;2023-03-01T07:42:36;101493.00;;;-1.90
75822;BMP180;64454;51.984;9.838;2023-03-01T07:45:06;101489.00;;;-2.00
75822;BMP180;64454;51.984;9.838;2023-03-01T07:47:33;101487.00;;;-1.90
75822;BMP180;64454;51.984;9.838;2023-03-01T07:50:00;101480.00;;;-1.80
75822;BMP180;64454;51.984;9.838;2023-03-01T07:52:28;101479.00;;;-1.40
75822;BMP180;64454;51.984;9.838;2023-03-01T07:54:55;101474.00;;;-1.80
75822;BMP180;64454;51.984;9.838;2023-03-01T07:57:22;101477.00;;;-1.40
75822;BMP180;64454;51.984;9.838;2023-03-01T07:59:49;101471.00;;;-0.90
75822;BMP180;64454;51.984;9.838;2023-03-01T08:02:17;101465.00;;;0.10
75822;BMP180;64454;51.984;9.838;2023-03-01T08:04:44;101466.00;;;0.40
75822;BMP180;64454;51.984;9.838;2023-03-01T08:07:11;101459.00;;;0.80
75822;BMP180;64454;51.984;9.838;2023-03-01T08:09:37;101466.00;;;1.20
75822;BMP180;64454;51.984;9.838;2023-03-01T08:12:05;101460.00;;;1.70
75822;BMP180;64454;51.984;9.838;2023-03-01T08:14:33;101458.00;;;2.00
75822;BMP180;64454;51.984;9.838;2023-03-01T08:17:00;101459.00;;;1.80
75822;BMP180;64454;51.984;9.838;2023-03-01T08:19:30;101439.00;;;2.40
75822;BMP180;64454;51.984;9.838;2023-03-01T08:21:57;101439.00;;;2.60
75822;BMP180;64454;51.984;9.838;2023-03-01T08:24:25;101433.00;;;3.00
75822;BMP180;64454;51.984;9.838;2023-03-01T08:26:52;101436.00;;;2.80
75822;BMP180;64454;51.984;9.838;2023-03-01T08:29:20;101436.00;;;3.50
75822;BMP180;64454;51.984;9.838;2023-03-01T08:31:48;101425.00;;;4.10
75822;BMP180;64454;51.984;9.838;2023-03-01T08:34:18;101425.00;;;4.80
75822;BMP180;64454;51.984;9.838;2023-03-01T08:36:47;101422.00;;;5.30
75822;BMP180;64454;51.984;9.838;2023-03-01T08:39:19;101430.00;;;6.40
75822;BMP180;64454;51.984;9.838;2023-03-01T08:41:47;101428.00;;;7.00
75822;BMP180;64454;51.984;9.838;2023-03-01T08:44:16;101426.00;;;8.20
75822;BMP180;64454;51.984;9.838;2023-03-01T08:46:44;101423.00;;;8.10
75822;BMP180;64454;51.984;9.838;2023-03-01T08:49:15;101420.00;;;9.00
75822;BMP180;64454;51.984;9.838;2023-03-01T08:51:45;101421.00;;;7.60
75822;BMP180;64454;51.984;9.838;2023-03-01T08:54:16;101422.00;;;8.90
75822;BMP180;64454;51.984;9.838;2023-03-01T08:56:44;101424.00;;;10.10
75822;BMP180;64454;51.984;9.838;2023-03-01T08:59:12;101418.00;;;10.00
75822;BMP180;64454;51.984;9.838;2023-03-01T09:01:40;101424.00;;;11.20
75822;BMP180;64454;51.984;9.838;2023-03-01T09:04:09;101418.00;;;10.60
75822;BMP180;64454;51.984;9.838;2023-03-01T09:06:36;101420.00;;;11.40
75822;BMP180;64454;51.984;9.838;2023-03-01T09:09:05;101414.00;;;13.30
75822;BMP180;64454;51.984;9.838;2023-03-01T09:11:34;101408.00;;;14.30
75822;BMP180;64454;51.984;9.838;2023-03-01T09:14:05;101402.00;;;13.30
75822;BMP180;64454;51.984;9.838;2023-03-01T09:16:32;101406.00;;;12.30
75822;BMP180;64454;51.984;9.838;2023-03-01T09:19:03;101403.00;;;12.60
75822;BMP180;64454;51.984;9.838;2023-03-01T09:21:30;101404.00;;;13.20
75822;BMP180;64454;51.984;9.838;2023-03-01T09:23:57;101408.00;;;13.70
75822;BMP180;64454;51.984;9.838;2023-03-01T09:26:25;101410.00;;;14.80
75822;BMP180;64454;51.984;9.838;2023-03-01T09:28:55;101406.00;;;14.80
75822;BMP180;64454;51.984;9.838;2023-03-01T09:31:24;101404.00;;;16.90
75822;BMP180;64454;51.984;9.838;2023-03-01T09:33:53;101407.00;;;16.50
75822;BMP180;64454;51.984;9.838;2023-03-01T09:36:22;101409.00;;;17.30
75822;BMP180;64454;51.984;9.838;2023-03-01T09:38:51;101411.00;;;17.70
75822;BMP180;64454;51.984;9.838;2023-03-01T09:41:38;101403.00;;;18.20
75822;BMP180;64454;51.984;9.838;2023-03-01T09:44:27;101400.00;;;17.70
75822;BMP180;64454;51.984;9.838;2023-03-01T09:46:58;101398.00;;;19.60
75822;BMP180;64454;51.984;9.838;2023-03-01T09:49:28;101394.00;;;17.60
75822;BMP180;64454;51.984;9.838;2023-03-01T09:52:00;101396.00;;;18.00
75822;BMP180;64454;51.984;9.838;2023-03-01T09:54:30;101388.00;;;18.50
75822;BMP180;64454;51.984;9.838;2023-03-01T09:57:20;101393.00;;;17.10
75822;BMP180;64454;51.984;9.838;2023-03-01T10:00:12;101390.00;;;17.00
75822;BMP180;64454;51.984;9.838;2023-03-01T10:02:45;101379.00;;;18.20
75822;BMP180;64454;51.984;9.838;2023-03-01T10:05:35;101383.00;;;17.70
75822;BMP180;64454;51.984;9.838;2023-03-01T10:08:24;101375.00;;;16.00
75822;BMP180;64454;51.984;9.838;2023-03-01T10:10:53;101374.00;;;16.90
75822;BMP180;64454;51.984;9.838;2023-03-01T10:13:26;101378.00;;;15.60
75822;BMP180;64454;51.984;9.838;2023-03-01T10:16:01;101374.00;;;17.80
75822;BMP180;64454;51.984;9.838;2023-03-01T10:18:33;101377.00;;;18.70
75822;BMP180;64454;51.984;9.838;2023-03-01T10:21:12;101367.00;;;17.90
75822;BMP180;64454;51.984;9.838;2023-03-01T10:23:40;101369.00;;;18.20
75822;BMP180;64454;51.984;9.838;2023-03-01T10:26:25;101365.00;;;16.50
75822;BMP180;64454;51.984;9.838;2023-03-01T10:29:03;101364.00;;;16.90
75822;BMP180;64454;51.984;9.838;2023-03-01T10:31:40;101367.00;;;18.30
75822;BMP180;64454;51.984;9.838;2023-03-01T10:34:13;101360.00;;;18.20
75822;BMP180;64454;51.984;9.838;2023-03-01T10:36:42;101364.00;;;20.40
75822;BMP180;64454;51.984;9.838;2023-03-01T10:39:18;101365.00;;;23.10
75822;BMP180;64454;51.984;9.838;2023-03-01T10:41:58;101363.00;;;20.20
75822;BMP180;64454;51.984;9.838;2023-03-01T10:44:44;101365.00;;;20.90
75822;BMP180;64454;51.984;9.838;2023-03-01T10:47:19;101367.00;;;21.80
75822;BMP180;64454;51.984;9.838;2023-03-01T10:49:58;101368.00;;;18.90
75822;BMP180;64454;51.984;9.838;2023-03-01T10:52:30;101361.00;;;15.50
75822;BMP180;64454;51.984;9.838;2023-03-01T10:55:02;101369.00;;;17.00
75822;BMP180;64454;51.984;9.838;2023-03-01T10:57:35;101364.00;;;16.30
75822;BMP180;64454;51.984;9.838;2023-03-01T11:00:22;101364.00;;;18.30
75822;BMP180;64454;51.984;9.838;2023-03-01T11:03:03;101367.00;;;17.20
75822;BMP180;64454;51.984;9.838;2023-03-01T11:05:30;101355.00;;;16.60
75822;BMP180;64454;51.984;9.838;2023-03-01T11:08:00;101360.00;;;13.40
75822;BMP180;64454;51.984;9.838;2023-03-01T11:10:30;101373.00;;;14.90
75822;BMP180;64454;51.984;9.838;2023-03-01T11:13:15;101365.00;;;18.70
75822;BMP180;64454;51.984;9.838;2023-03-01T11:15:58;101370.00;;;16.30
75822;BMP180;64454;51.984;9.838;2023-03-01T11:18:26;101369.00;;;18.00
75822;BMP180;64454;51.984;9.838;2023-03-01T11:20:56;101364.00;;;12.70
75822;BMP180;64454;51.984;9.838;2023-03-01T11:23:27;101370.00;;;13.80
75822;BMP180;64454;51.984;9.838;2023-03-01T11:25:58;101372.00;;;14.60
75822;BMP180;64454;51.984;9.838;2023-03-01T11:28:29;101367.00;;;14.10
75822;BMP180;64454;51.984;9.838;2023-03-01T11:31:01;101368.00;;;12.90
75822;BMP180;64454;51.984;9.838;2023-03-01T11:33:37;101370.00;;;13.10
75822;BMP180;64454;51.984;9.838;2023-03-01T11:36:16;101366.00;;;11.60
75822;BMP180;64454;51.984;9.838;2023-03-01T11:38:44;101368.00;;;11.50
75822;BMP180;64454;51.984;9.838;2023-03-01T11:41:17;101372.00;;;12.10
75822;BMP180;64454;51.984;9.838;2023-03-01T11:43:52;101359.00;;;10.50
75822;BMP180;64454;51.984;9.838;2023-03-01T11:46:51;101365.00;;;10.50
75822;BMP180;64454;51.984;9.838;2023-03-01T11:50:08;101360.00;;;11.80
75822;BMP180;64454;51.984;9.838;2023-03-01T11:52:52;101355.00;;;10.30
75822;BMP180;64454;51.984;9.838;2023-03-01T11:55:36;101347.00;;;9.70
75822;BMP180;64454;51.984;9.838;2023-03-01T11:58:43;101355.00;;;11.30
75822;BMP180;64454;51.984;9.838;2023-03-01T12:01:32;101342.00;;;11.10
75822;BMP180;64454;51.984;9.838;2023-03-01T12:04:30;101343.00;;;11.10
75822;BMP180;64454;51.984;9.838;2023-03-01T12:07:05;101345.00;;;11.40
75822;BMP180;64454;51.984;9.838;2023-03-01T12:09:54;101351.00;;;12.10
75822;BMP180;64454;51.984;9.838;2023-03-01T12:12:33;101337.00;;;12.30
75822;BMP180;64454;51.984;9.838;2023-03-01T12:15:51;101337.00;;;12.30
75822;BMP180;64454;51.984;9.838;2023-03-01T12:18:59;101333.00;;;12.90
75822;BMP180;64454;51.984;9.838;2023-03-01T12:21:44;101334.00;;;13.20
75822;BMP180;64454;51.984;9.838;2023-03-01T12:24:47;101330.00;;;12.50
75822;BMP180;64454;51.984;9.838;2023-03-01T12:27:43;101323.00;;;12.60
75822;BMP180;64454;51.984;9.838;2023-03-01T12:30:29;101313.00;;;13.90
75822;BMP180;64454;51.984;9.838;2023-03-01T12:33:17;101309.00;;;14.60
75822;BMP180;64454;51.984;9.838;2023-03-01T12:36:22;101317.00;;;15.30
75822;BMP180;64454;51.984;9.838;2023-03-01T12:39:06;101303.00;;;14.10
75822;BMP180;64454;51.984;9.838;2023-03-01T12:41:48;101302.00;;;13.20
75822;BMP180;64454;51.984;9.838;2023-03-01T12:44:55;101303.00;;;13.30
75822;BMP180;64454;51.984;9.838;2023-03-01T12:47:44;101289.00;;;13.60
75822;BMP180;64454;51.984;9.838;2023-03-01T12:50:21;101292.00;;;14.00
75822;BMP180;64454;51.984;9.838;2023-03-01T12:52:53;101281.00;;;15.70
75822;BMP180;64454;51.984;9.838;2023-03-01T12:55:31;101278.00;;;15.30
75822;BMP180;64454;51.984;9.838;2023-03-01T12:58:15;101276.00;;;15.30
75822;BMP180;64454;51.984;9.838;2023-03-01T13:01:04;101267.00;;;17.70
75822;BMP180;64454;51.984;9.838;2023-03-01T13:03:56;101269.00;;;18.30
75822;BMP180;64454;51.984;9.838;2023-03-01T13:06:33;101257.00;;;20.90
75822;BMP180;64454;51.984;9.838;2023-03-01T13:09:13;101249.00;;;18.20
75822;BMP180;64454;51.984;9.838;2023-03-01T13:11:43;101245.00;;;17.90
75822;BMP180;64454;51.984;9.838;2023-03-01T13:14:36;101233.00;;;20.20
75822;BMP180;64454;51.984;9.838;2023-03-01T13:17:29;101238.00;;;20.80
75822;BMP180;64454;51.984;9.838;2023-03-01T13:19:57;101244.00;;;20.10
75822;BMP180;64454;51.984;9.838;2023-03-01T13:22:29;101237.00;;;21.40
75822;BMP180;64454;51.984;9.838;2023-03-01T13:25:15;101230.00;;;21.20
75822;BMP180;64454;51.984;9.838;2023-03-01T13:27:44;101232.00;;;20.90
75822;BMP180;64454;51.984;9.838;2023-03-01T13:30:41;101233.00;;;21.60
75822;BMP180;64454;51.984;9.838;2023-03-01T13:33:42;101232.00;;;20.30
75822;BMP180;64454;51.984;9.838;2023-03-01T13:36:11;101234.00;;;17.00
75822;BMP180;64454;51.984;9.838;2023-03-01T13:39:03;101239.00;;;20.40
75822;BMP180;64454;51.984;9.838;2023-03-01T13:41:50;101227.00;;;18.20
75822;BMP180;64454;51.984;9.838;2023-03-01T13:44:25;101227.00;;;19.00
75822;BMP180;64454;51.984;9.838;2023-03-01T13:46:57;101223.00;;;19.20
75822;BMP180;64454;51.984;9.838;2023-03-01T13:49:29;101229.00;;;20.60
75822;BMP180;64454;51.984;9.838;2023-03-01T13:52:02;101216.00;;;20.50
75822;BMP180;64454;51.984;9.838;2023-03-01T13:54:33;101219.00;;;21.80
75822;BMP180;64454;51.984;9.838;2023-03-01T13:57:02;101209.00;;;17.30
75822;BMP180;64454;51.984;9.838;2023-03-01T13:59:29;101208.00;;;19.20
75822;BMP180;64454;51.984;9.838;2023-03-01T14:01:58;101211.00;;;19.90
75822;BMP180;64454;51.984;9.838;2023-03-01T14:04:27;101203.00;;;20.50
75822;BMP180;64454;51.984;9.838;2023-03-01T14:07:16;101208.00;;;19.20
75822;BMP180;64454;51.984;9.838;2023-03-01T14:09:48;101205.00;;;20.30
75822;BMP180;64454;51.984;9.838;2023-03-01T14:12:35;101207.00;;;18.70
75822;BMP180;64454;51.984;9.838;2023-03-01T14:15:15;101211.00;;;18.60
75822;BMP180;64454;51.984;9.838;2023-03-01T14:17:55;101202.00;;;19.10
75822;BMP180;64454;51.984;9.838;2023-03-01T14:20:27;101214.00;;;19.20
75822;BMP180;64454;51.984;9.838;2023-03-01T14:22:57;101208.00;;;18.20
75822;BMP180;64454;51.984;9.838;2023-03-01T14:25:29;101221.00;;;17.60
75822;BMP180;64454;51.984;9.838;2023-03-01T14:28:03;101229.00;;;17.70
75822;BMP180;64454;51.984;9.838;2023-03-01T14:30:36;101220.00;;;15.40